createdAt,value
2023-02-28T00:00:40.321Z,6.07
2023-02-28T00:03:09.738Z,8.85
2023-02-28T00:05:40.601Z,7.47
2023-02-28T00:08:10.443Z,10.00
2023-02-28T00:10:40.693Z,9.63
2023-02-28T00:13:12.926Z,8.73
2023-02-28T00:15:46.409Z,7.63
2023-02-28T00:18:15.806Z,8.27
2023-02-28T00:20:49.422Z,9.43
2023-02-28T00:23:19.186Z,6.85
2023-02-28T00:25:48.948Z,12.02
2023-02-28T00:28:18.567Z,6.85
2023-02-28T00:30:48.493Z,7.72
2023-02-28T00:33:18.126Z,10.15
2023-02-28T00:35:49.793Z,6.35
2023-02-28T00:38:19.220Z,5.63
2023-02-28T00:40:48.659Z,8.57
2023-02-28T00:43:18.080Z,5.45
2023-02-28T00:45:47.984Z,5.88
2023-02-28T00:48:17.197Z,7.05
2023-02-28T00:50:46.657Z,6.60
2023-02-28T00:53:17.571Z,9.43
2023-02-28T00:55:47.506Z,8.68
2023-02-28T00:58:16.938Z,7.70
2023-02-28T01:00:50.479Z,8.70
2023-02-28T01:03:21.357Z,8.23
2023-02-28T01:05:50.939Z,8.63
2023-02-28T01:08:21.623Z,8.82
2023-02-28T01:10:51.926Z,10.80
2023-02-28T01:13:22.351Z,9.80
2023-02-28T01:15:54.307Z,8.25
2023-02-28T01:18:33.496Z,6.95
2023-02-28T01:21:06.581Z,8.65
2023-02-28T01:23:37.512Z,8.73
2023-02-28T01:26:08.264Z,8.40
2023-02-28T01:28:37.751Z,9.48
2023-02-28T01:31:07.643Z,9.52
2023-02-28T01:33:38.394Z,9.77
2023-02-28T01:36:09.877Z,8.48
2023-02-28T01:38:41.251Z,7.82
2023-02-28T01:41:16.750Z,7.80
2023-02-28T01:43:59.001Z,6.82
2023-02-28T01:46:28.482Z,6.97
2023-02-28T01:49:03.560Z,6.72
2023-02-28T01:51:38.208Z,7.25
2023-02-28T01:54:21.195Z,7.88
2023-02-28T01:56:56.741Z,7.32
2023-02-28T01:59:31.985Z,8.60
2023-02-28T02:02:02.537Z,7.90
2023-02-28T02:04:49.736Z,8.20
2023-02-28T02:07:36.144Z,9.10
2023-02-28T02:10:51.884Z,11.88
2023-02-28T02:13:59.399Z,8.40
2023-02-28T02:16:39.082Z,7.55
2023-02-28T02:19:49.190Z,7.82
2023-02-28T02:23:13.131Z,8.35
2023-02-28T02:25:47.961Z,7.47
2023-02-28T02:29:19.545Z,5.63
2023-02-28T02:32:59.350Z,8.88
2023-02-28T02:35:50.965Z,6.45
2023-02-28T02:38:29.772Z,9.90
2023-02-28T02:41:10.184Z,5.88
2023-02-28T02:43:45.343Z,7.68
2023-02-28T02:46:18.760Z,6.13
2023-02-28T02:48:49.253Z,6.57
2023-02-28T02:51:24.002Z,5.28
2023-02-28T02:53:57.550Z,8.35
2023-02-28T02:56:34.469Z,5.13
2023-02-28T02:59:10.340Z,7.38
2023-02-28T03:01:41.048Z,8.38
2023-02-28T03:04:14.467Z,5.15
2023-02-28T03:06:45.580Z,7.90
2023-02-28T03:09:14.829Z,8.32
2023-02-28T03:11:44.980Z,6.80
2023-02-28T03:14:41.986Z,8.90
2023-02-28T03:17:50.996Z,8.48
2023-02-28T03:20:35.351Z,8.52
2023-02-28T03:23:15.983Z,7.82
2023-02-28T03:25:57.850Z,8.07
2023-02-28T03:28:35.033Z,9.13
2023-02-28T03:31:10.784Z,7.35
2023-02-28T03:33:43.313Z,8.10
2023-02-28T03:36:17.111Z,6.53
2023-02-28T03:41:24.466Z,6.53
2023-02-28T03:43:59.279Z,7.15
2023-02-28T03:46:34.181Z,7.32
2023-02-28T03:49:07.394Z,9.27
2023-02-28T03:51:38.341Z,7.38
2023-02-28T03:54:16.030Z,11.48
2023-02-28T03:56:51.568Z,8.02
2023-02-28T03:59:25.291Z,9.02
2023-02-28T04:01:54.375Z,11.18
2023-02-28T04:04:24.149Z,8.82
2023-02-28T04:07:02.705Z,8.20
2023-02-28T04:09:33.178Z,9.05
2023-02-28T04:12:02.938Z,7.10
2023-02-28T04:14:32.009Z,8.93
2023-02-28T04:17:01.414Z,11.90
2023-02-28T04:19:30.600Z,8.55
2023-02-28T04:21:59.846Z,8.20
2023-02-28T04:24:30.264Z,9.13
2023-02-28T04:27:01.014Z,10.07
2023-02-28T04:29:32.933Z,12.57
2023-02-28T04:32:03.842Z,12.15
2023-02-28T04:34:34.507Z,6.72
2023-02-28T04:37:13.385Z,8.27
2023-02-28T04:39:44.095Z,11.25
2023-02-28T04:42:15.881Z,8.52
2023-02-28T04:44:45.131Z,14.80
2023-02-28T04:47:15.061Z,10.10
2023-02-28T04:49:44.563Z,8.90
2023-02-28T04:52:14.504Z,9.38
2023-02-28T04:54:43.661Z,9.13
2023-02-28T04:57:14.790Z,9.35
2023-02-28T04:59:44.406Z,8.18
2023-02-28T05:02:13.432Z,9.75
2023-02-28T05:04:43.316Z,9.85
2023-02-28T05:07:12.612Z,8.82
2023-02-28T05:09:42.129Z,10.30
2023-02-28T05:12:12.397Z,10.57
2023-02-28T05:14:43.199Z,10.02
2023-02-28T05:17:13.058Z,13.05
2023-02-28T05:19:42.509Z,9.60
2023-02-28T05:22:16.530Z,10.80
2023-02-28T05:24:45.872Z,10.93
2023-02-28T05:27:15.203Z,9.45
2023-02-28T05:29:46.280Z,14.05
2023-02-28T05:32:16.035Z,8.52
2023-02-28T05:34:45.269Z,10.68
2023-02-28T05:37:16.072Z,10.80
2023-02-28T05:39:45.158Z,14.20
2023-02-28T05:42:14.397Z,11.55
2023-02-28T05:44:43.539Z,9.80
2023-02-28T05:47:16.669Z,8.27
2023-02-28T05:49:45.812Z,10.30
2023-02-28T05:52:15.448Z,12.10
2023-02-28T05:54:44.948Z,9.02
2023-02-28T05:57:23.937Z,10.40
2023-02-28T05:59:53.699Z,12.75
2023-02-28T06:02:24.347Z,9.88
2023-02-28T06:04:53.416Z,11.05
2023-02-28T06:07:23.520Z,9.13
2023-02-28T06:09:52.866Z,9.52
2023-02-28T06:12:22.305Z,8.85
2023-02-28T06:14:51.625Z,6.78
2023-02-28T06:17:24.819Z,8.18
2023-02-28T06:19:54.492Z,11.68
2023-02-28T06:22:23.742Z,10.00
2023-02-28T06:24:53.841Z,9.13
2023-02-28T06:27:23.528Z,6.82
2023-02-28T06:29:56.969Z,7.97
2023-02-28T06:32:27.650Z,9.48
2023-02-28T06:34:59.443Z,10.25
2023-02-28T06:37:29.238Z,10.63
2023-02-28T06:39:58.785Z,9.18
2023-02-28T06:42:29.986Z,15.48
2023-02-28T06:44:59.954Z,11.88
2023-02-28T06:47:30.667Z,7.93
2023-02-28T06:50:02.634Z,9.85
2023-02-28T06:52:32.166Z,20.40
2023-02-28T06:55:02.135Z,12.85
2023-02-28T06:57:33.326Z,10.93
2023-02-28T07:00:06.291Z,7.90
2023-02-28T07:02:38.610Z,6.60
2023-02-28T07:05:09.523Z,7.57
2023-02-28T07:07:41.864Z,10.25
2023-02-28T07:10:13.730Z,8.88
2023-02-28T07:12:43.188Z,5.68
2023-02-28T07:15:14.030Z,8.45
2023-02-28T07:17:44.804Z,8.20
2023-02-28T07:20:15.396Z,9.27
2023-02-28T07:22:45.297Z,8.45
2023-02-28T07:25:14.959Z,10.05
2023-02-28T07:27:44.301Z,8.07
2023-02-28T07:30:15.495Z,6.63
2023-02-28T07:32:47.832Z,7.53
2023-02-28T07:35:17.415Z,10.57
2023-02-28T07:37:48.203Z,7.68
2023-02-28T07:40:22.233Z,6.60
2023-02-28T07:42:51.574Z,7.78
2023-02-28T07:45:21.423Z,6.50
2023-02-28T07:47:51.969Z,7.93
2023-02-28T07:50:21.161Z,7.40
2023-02-28T07:52:50.383Z,8.93
2023-02-28T07:55:20.188Z,6.97
2023-02-28T07:57:49.991Z,7.88
2023-02-28T08:00:19.824Z,7.38
2023-02-28T08:02:50.114Z,8.65
2023-02-28T08:05:22.117Z,9.68
2023-02-28T08:07:54.562Z,10.32
2023-02-28T08:10:24.886Z,8.00
2023-02-28T08:12:54.386Z,8.70
2023-02-28T08:15:24.097Z,9.73
2023-02-28T08:17:53.690Z,5.93
2023-02-28T08:20:25.928Z,9.32
2023-02-28T08:22:56.021Z,9.43
2023-02-28T08:25:25.531Z,7.63
2023-02-28T08:27:55.641Z,8.07
2023-02-28T08:30:25.448Z,11.10
2023-02-28T08:32:55.551Z,9.27
2023-02-28T08:35:26.918Z,9.57
2023-02-28T08:37:56.950Z,8.05
2023-02-28T08:40:26.260Z,10.38
2023-02-28T08:42:55.392Z,9.13
2023-02-28T08:45:24.554Z,7.30
2023-02-28T08:47:54.859Z,8.63
2023-02-28T08:50:25.970Z,8.60
2023-02-28T08:52:55.343Z,6.47
2023-02-28T08:55:24.558Z,8.15
2023-02-28T08:57:56.079Z,7.50
2023-02-28T09:00:26.323Z,7.07
2023-02-28T09:02:56.290Z,7.07
2023-02-28T09:05:26.882Z,11.38
2023-02-28T09:07:56.494Z,9.57
2023-02-28T09:10:25.925Z,8.43
2023-02-28T09:12:55.573Z,8.27
2023-02-28T09:15:25.614Z,10.70
2023-02-28T09:17:56.526Z,11.00
2023-02-28T09:20:26.847Z,9.05
2023-02-28T09:22:57.414Z,8.45
2023-02-28T09:25:27.165Z,8.68
2023-02-28T09:27:57.029Z,8.00
2023-02-28T09:30:27.319Z,8.98
2023-02-28T09:32:56.877Z,9.23
2023-02-28T09:35:28.658Z,9.35
2023-02-28T09:38:00.130Z,10.27
2023-02-28T09:40:30.528Z,15.00
2023-02-28T09:43:02.233Z,10.00
2023-02-28T09:45:35.466Z,7.55
2023-02-28T09:48:11.571Z,8.63
2023-02-28T09:50:47.065Z,8.90
2023-02-28T09:53:23.167Z,10.73
2023-02-28T09:55:56.999Z,14.00
2023-02-28T10:01:06.931Z,7.70
2023-02-28T10:03:41.246Z,11.35
2023-02-28T10:06:16.715Z,8.50
2023-02-28T10:08:53.575Z,9.88
2023-02-28T10:11:24.933Z,12.38
2023-02-28T10:14:02.556Z,10.45
2023-02-28T10:16:36.954Z,7.95
2023-02-28T10:19:14.305Z,10.07
2023-02-28T10:21:50.921Z,10.05
2023-02-28T10:24:25.651Z,13.45
2023-02-28T10:27:01.972Z,8.82
2023-02-28T10:29:35.678Z,8.13
2023-02-28T10:32:06.451Z,6.28
2023-02-28T10:34:35.821Z,8.32
2023-02-28T10:37:09.424Z,10.32
2023-02-28T10:39:43.328Z,8.32
2023-02-28T10:42:27.268Z,8.32
2023-02-28T10:45:12.282Z,9.23
2023-02-28T10:47:54.902Z,8.80
2023-02-28T10:50:44.707Z,8.48
2023-02-28T10:53:36.104Z,9.30
2023-02-28T10:56:18.035Z,8.55
2023-02-28T10:58:55.956Z,7.80
2023-02-28T11:01:36.204Z,8.30
2023-02-28T11:04:18.299Z,6.90
2023-02-28T11:06:48.573Z,9.52
2023-02-28T11:09:26.095Z,7.70
2023-02-28T11:11:55.930Z,7.43
2023-02-28T11:14:29.788Z,7.38
2023-02-28T11:17:04.095Z,7.80
2023-02-28T11:19:47.845Z,6.88
2023-02-28T11:22:21.756Z,8.27
2023-02-28T11:27:48.771Z,7.68
2023-02-28T11:30:38.105Z,7.80
2023-02-28T11:33:34.417Z,7.13
2023-02-28T11:36:12.366Z,8.50
2023-02-28T11:38:44.260Z,7.75
2023-02-28T11:41:41.518Z,8.07
2023-02-28T11:44:37.979Z,9.60
2023-02-28T11:47:14.653Z,7.82
2023-02-28T11:49:54.768Z,12.98
2023-02-28T11:52:42.044Z,9.80
2023-02-28T11:55:20.627Z,8.90
2023-02-28T11:58:15.728Z,8.35
2023-02-28T12:01:16.978Z,10.95
2023-02-28T12:03:58.017Z,8.63
2023-02-28T12:06:35.402Z,8.75
2023-02-28T12:09:25.884Z,8.38
2023-02-28T12:12:02.512Z,7.28
2023-02-28T12:15:05.795Z,8.75
2023-02-28T12:17:51.220Z,10.10
2023-02-28T12:20:32.772Z,8.50
2023-02-28T12:23:21.873Z,9.52
2023-02-28T12:26:03.365Z,8.02
2023-02-28T12:28:36.710Z,12.18
2023-02-28T12:31:11.825Z,8.55
2023-02-28T12:33:46.179Z,9.07
2023-02-28T12:36:23.142Z,7.47
2023-02-28T12:38:58.691Z,9.65
2023-02-28T12:41:35.875Z,11.13
2023-02-28T12:44:14.033Z,8.45
2023-02-28T12:46:50.690Z,6.97
2023-02-28T12:49:26.708Z,9.70
2023-02-28T12:51:56.816Z,7.53
2023-02-28T12:54:31.411Z,8.50
2023-02-28T12:57:11.507Z,8.48
2023-02-28T12:59:45.347Z,9.30
2023-02-28T13:02:51.247Z,7.45
2023-02-28T13:05:42.217Z,7.95
2023-02-28T13:08:58.982Z,6.05
2023-02-28T13:11:31.970Z,6.65
2023-02-28T13:14:03.658Z,7.97
2023-02-28T13:16:57.532Z,9.45
2023-02-28T13:19:30.194Z,7.22
2023-02-28T13:22:01.932Z,8.93
2023-02-28T13:24:46.627Z,7.50
2023-02-28T13:27:40.112Z,9.07
2023-02-28T13:30:48.477Z,6.68
2023-02-28T13:33:26.726Z,8.05
2023-02-28T13:36:27.925Z,6.85
2023-02-28T13:39:01.630Z,7.25
2023-02-28T13:44:28.643Z,8.45
2023-02-28T13:47:30.334Z,10.30
2023-02-28T13:50:25.216Z,9.82
2023-02-28T13:53:25.754Z,7.20
2023-02-28T13:56:03.642Z,10.20
2023-02-28T13:58:51.142Z,10.38
2023-02-28T14:01:34.862Z,8.60
2023-02-28T14:04:27.509Z,8.88
2023-02-28T14:06:59.654Z,7.93
2023-02-28T14:09:31.115Z,9.52
2023-02-28T14:12:40.160Z,8.10
2023-02-28T14:15:43.213Z,10.50
2023-02-28T14:18:28.778Z,14.13
2023-02-28T14:21:10.596Z,10.68
2023-02-28T14:24:14.389Z,9.75
2023-02-28T14:26:59.696Z,12.13
2023-02-28T14:30:18.117Z,13.00
2023-02-28T14:32:57.175Z,10.02
2023-02-28T14:35:46.125Z,11.30
2023-02-28T14:38:22.483Z,8.20
2023-02-28T14:40:55.326Z,12.13
2023-02-28T14:43:27.231Z,14.55
2023-02-28T14:45:59.757Z,9.55
2023-02-28T14:48:30.081Z,12.85
2023-02-28T14:51:01.865Z,9.93
2023-02-28T14:53:38.518Z,13.18
2023-02-28T14:56:09.763Z,10.90
2023-02-28T14:58:39.306Z,9.80
2023-02-28T15:01:13.394Z,11.68
2023-02-28T15:03:45.820Z,9.75
2023-02-28T15:06:17.088Z,13.25
2023-02-28T15:08:47.500Z,11.85
2023-02-28T15:11:20.229Z,9.48
2023-02-28T15:13:51.970Z,9.60
2023-02-28T15:16:24.644Z,10.75
2023-02-28T15:18:57.199Z,12.75
2023-02-28T15:21:29.489Z,10.90
2023-02-28T15:24:02.736Z,9.40
2023-02-28T15:26:35.484Z,19.60
2023-02-28T15:29:08.405Z,14.50
2023-02-28T15:31:56.397Z,12.20
2023-02-28T15:34:40.552Z,12.95
2023-02-28T15:37:31.070Z,13.50
2023-02-28T15:40:07.171Z,11.27
2023-02-28T15:42:37.025Z,15.82
2023-02-28T15:45:09.151Z,15.18
2023-02-28T15:47:40.322Z,13.63
2023-02-28T15:50:16.263Z,13.60
2023-02-28T15:52:47.301Z,12.80
2023-02-28T15:55:21.715Z,13.25
2023-02-28T15:57:55.401Z,11.88
2023-02-28T16:02:57.034Z,13.30
2023-02-28T16:05:33.515Z,16.13
2023-02-28T16:08:12.515Z,14.63
2023-02-28T16:10:42.446Z,15.15
2023-02-28T16:13:17.064Z,15.18
2023-02-28T16:15:46.562Z,14.07
2023-02-28T16:18:17.382Z,20.17
2023-02-28T16:20:46.853Z,15.05
2023-02-28T16:23:16.147Z,13.93
2023-02-28T16:25:47.778Z,12.73
2023-02-28T16:28:22.797Z,18.05
2023-02-28T16:30:53.831Z,19.48
2023-02-28T16:33:24.822Z,12.63
2023-02-28T16:35:54.453Z,14.07
2023-02-28T16:38:24.423Z,16.20
2023-02-28T16:41:02.161Z,19.85
2023-02-28T16:43:31.942Z,18.80
2023-02-28T16:46:02.558Z,18.83
2023-02-28T16:48:33.484Z,19.75
2023-02-28T16:51:05.378Z,17.05
2023-02-28T16:53:35.586Z,15.02
2023-02-28T16:56:07.844Z,16.05
2023-02-28T16:58:37.843Z,16.63
2023-02-28T17:01:07.519Z,16.48
2023-02-28T17:03:38.702Z,15.82
2023-02-28T17:06:18.647Z,19.13
2023-02-28T17:08:48.391Z,14.07
2023-02-28T17:11:17.958Z,19.80
2023-02-28T17:13:47.858Z,14.02
2023-02-28T17:16:23.045Z,16.73
2023-02-28T17:18:56.051Z,14.55
2023-02-28T17:21:25.698Z,15.88
2023-02-28T17:23:55.704Z,16.10
2023-02-28T17:26:26.312Z,17.65
2023-02-28T17:28:57.032Z,15.25
2023-02-28T17:31:28.475Z,15.10
2023-02-28T17:33:59.587Z,14.80
2023-02-28T17:36:30.200Z,15.38
2023-02-28T17:39:00.845Z,14.32
2023-02-28T17:41:31.785Z,16.55
2023-02-28T17:44:01.088Z,15.38
2023-02-28T17:46:31.486Z,18.08
2023-02-28T17:49:02.676Z,14.60
2023-02-28T17:51:32.304Z,19.55
2023-02-28T17:54:02.079Z,15.85
2023-02-28T17:56:31.865Z,15.13
2023-02-28T17:59:02.673Z,15.85
2023-02-28T18:01:33.469Z,17.88
2023-02-28T18:04:05.471Z,20.88
2023-02-28T18:06:47.488Z,22.00
2023-02-28T18:09:19.576Z,17.05
2023-02-28T18:11:51.338Z,21.02
2023-02-28T18:14:24.612Z,23.30
2023-02-28T18:16:56.146Z,19.70
2023-02-28T18:19:27.136Z,19.63
2023-02-28T18:21:58.358Z,20.10
2023-02-28T18:24:28.825Z,19.08
2023-02-28T18:26:58.584Z,19.92
2023-02-28T18:29:29.711Z,21.23
2023-02-28T18:31:59.770Z,20.13
2023-02-28T18:34:31.653Z,20.95
2023-02-28T18:37:01.424Z,17.30
2023-02-28T18:39:32.126Z,20.52
2023-02-28T18:42:02.010Z,18.85
2023-02-28T18:44:32.010Z,17.63
2023-02-28T18:47:02.565Z,20.48
2023-02-28T18:49:35.880Z,17.13
2023-02-28T18:52:05.722Z,25.00
2023-02-28T18:54:37.040Z,23.10
2023-02-28T18:57:06.843Z,22.52
2023-02-28T18:59:36.667Z,20.48
2023-02-28T19:02:06.294Z,21.20
2023-02-28T19:04:37.167Z,17.35
2023-02-28T19:07:07.713Z,17.30
2023-02-28T19:09:37.722Z,21.05
2023-02-28T19:12:08.385Z,21.75
2023-02-28T19:14:38.440Z,19.85
2023-02-28T19:17:08.101Z,17.20
2023-02-28T19:19:39.326Z,16.48
2023-02-28T19:22:09.543Z,22.85
2023-02-28T19:24:39.143Z,20.40
2023-02-28T19:27:08.866Z,15.70
2023-02-28T19:29:38.708Z,20.40
2023-02-28T19:32:08.616Z,17.88
2023-02-28T19:34:39.945Z,19.77
2023-02-28T19:37:09.462Z,25.00
2023-02-28T19:39:42.273Z,23.23
2023-02-28T19:42:13.299Z,24.00
2023-02-28T19:44:45.129Z,19.73
2023-02-28T19:47:14.938Z,22.95
2023-02-28T19:49:46.224Z,15.23
2023-02-28T19:52:15.768Z,15.52
2023-02-28T19:54:45.512Z,24.88
2023-02-28T19:57:16.747Z,15.98
2023-02-28T19:59:47.174Z,20.05
2023-02-28T20:02:19.272Z,15.13
2023-02-28T20:04:52.632Z,14.90
2023-02-28T20:07:23.958Z,18.73
2023-02-28T20:09:55.912Z,15.82
2023-02-28T20:12:26.369Z,16.17
2023-02-28T20:14:57.565Z,17.00
2023-02-28T20:17:27.654Z,15.02
2023-02-28T20:19:58.608Z,13.52
2023-02-28T20:22:28.643Z,14.63
2023-02-28T20:24:58.200Z,15.30
2023-02-28T20:27:27.962Z,14.48
2023-02-28T20:29:57.482Z,15.32
2023-02-28T20:32:27.669Z,14.02
2023-02-28T20:34:58.599Z,18.52
2023-02-28T20:37:29.351Z,16.85
2023-02-28T20:39:59.588Z,16.45
2023-02-28T20:42:28.919Z,15.77
2023-02-28T20:44:58.691Z,17.63
2023-02-28T20:47:29.264Z,16.55
2023-02-28T20:50:00.169Z,14.32
2023-02-28T20:52:29.545Z,15.85
2023-02-28T20:54:59.597Z,16.75
2023-02-28T20:57:30.326Z,16.52
2023-02-28T21:00:00.008Z,14.93
2023-02-28T21:02:29.461Z,18.30
2023-02-28T21:05:00.038Z,15.68
2023-02-28T21:07:29.697Z,14.10
2023-02-28T21:09:59.245Z,15.57
2023-02-28T21:12:28.907Z,20.92
2023-02-28T21:14:58.866Z,13.52
2023-02-28T21:17:30.263Z,19.85
2023-02-28T21:20:02.824Z,18.60
2023-02-28T21:22:34.708Z,16.65
2023-02-28T21:25:06.194Z,18.50
2023-02-28T21:27:36.182Z,14.80
2023-02-28T21:30:06.909Z,14.98
2023-02-28T21:32:36.384Z,14.52
2023-02-28T21:35:07.780Z,16.70
2023-02-28T21:37:39.516Z,19.02
2023-02-28T21:40:10.283Z,14.65
2023-02-28T21:42:39.907Z,16.98
2023-02-28T21:45:10.091Z,16.70
2023-02-28T21:47:41.392Z,14.70
2023-02-28T21:50:15.471Z,12.85
2023-02-28T21:52:46.334Z,15.48
2023-02-28T21:55:15.901Z,16.05
2023-02-28T21:57:45.494Z,14.82
2023-02-28T22:00:17.390Z,12.27
2023-02-28T22:02:47.379Z,14.35
2023-02-28T22:05:21.950Z,15.38
2023-02-28T22:07:51.601Z,15.82
2023-02-28T22:10:21.181Z,17.15
2023-02-28T22:12:50.756Z,14.82
2023-02-28T22:15:19.923Z,14.32
2023-02-28T22:17:49.629Z,15.32
2023-02-28T22:20:19.126Z,16.17
2023-02-28T22:22:50.258Z,13.52
2023-02-28T22:25:19.934Z,20.17
2023-02-28T22:27:49.392Z,16.77
2023-02-28T22:30:19.598Z,15.77
2023-02-28T22:32:48.891Z,17.55
2023-02-28T22:35:19.654Z,17.33
2023-02-28T22:37:59.692Z,14.35
2023-02-28T22:40:35.554Z,14.48
2023-02-28T22:43:15.756Z,15.00
2023-02-28T22:45:52.894Z,15.15
2023-02-28T22:48:36.485Z,17.45
2023-02-28T22:51:16.877Z,13.85
2023-02-28T22:54:01.494Z,16.17
2023-02-28T22:57:04.540Z,14.63
2023-02-28T22:59:37.089Z,16.60
2023-02-28T23:02:06.599Z,15.43
2023-02-28T23:05:39.181Z,12.30
2023-02-28T23:12:41.355Z,14.57
2023-02-28T23:15:27.346Z,16.05
2023-02-28T23:17:56.903Z,13.70
2023-02-28T23:20:26.669Z,16.67
2023-02-28T23:22:56.341Z,10.00
2023-02-28T23:25:25.597Z,17.98
2023-02-28T23:27:56.514Z,17.13
2023-02-28T23:30:26.296Z,13.77
2023-02-28T23:32:55.532Z,14.93
2023-02-28T23:35:24.768Z,14.95
2023-02-28T23:37:54.080Z,20.20
2023-02-28T23:40:23.516Z,20.25
2023-02-28T23:42:53.767Z,16.23
2023-02-28T23:45:24.258Z,15.70
2023-02-28T23:47:53.579Z,16.48
2023-02-28T23:50:22.962Z,12.73
2023-02-28T23:52:52.389Z,15.30
2023-02-28T23:55:22.240Z,18.05
2023-02-28T23:57:51.841Z,15.70
